Time;durP1;ratioP1;P1;durP2;ratioP2;P2;SDS_P1;SDS_P2;PMS_P1;PMS_P2;Temp;Humidity;BMP_temperature;BMP_pressure;BME280_temperature;BME280_humidity;BME280_pressure;Samples;Min_cycle;Max_cycle;Signal;HPM_P1;HPM_P2
2021/09/29 00:00:48;;;;;;;14.47;7.83;;;8.20;99.90;;;;;;4412652;32;20173;-66
2021/09/29 00:03:15;;;;;;;13.87;7.97;;;8.20;99.90;;;;;;4410808;32;20123;-66
2021/09/29 00:05:42;;;;;;;15.80;7.53;;;8.20;99.90;;;;;;4410812;32;20176;-66
2021/09/29 00:08:10;;;;;;;12.73;7.23;;;8.20;99.90;;;;;;4412657;32;20128;-66
2021/09/29 00:10:38;;;;;;;13.93;7.83;;;8.20;99.90;;;;;;4412627;32;20180;-66
2021/09/29 00:13:05;;;;;;;13.73;7.80;;;8.20;99.90;;;;;;4411477;32;20135;-66
2021/09/29 00:15:32;;;;;;;13.30;7.87;;;8.20;99.90;;;;;;4410612;32;20503;-66
2021/09/29 00:17:59;;;;;;;15.20;7.53;;;8.20;99.90;;;;;;4412501;32;20442;-65
2021/09/29 00:20:26;;;;;;;12.10;7.80;;;8.10;99.90;;;;;;4412457;32;20127;-65
2021/09/29 00:22:52;;;;;;;14.07;7.93;;;8.20;99.90;;;;;;4410726;32;20453;-66
2021/09/29 00:25:19;;;;;;;13.47;7.60;;;8.10;99.90;;;;;;4412501;32;20449;-65
2021/09/29 00:27:46;;;;;;;12.30;7.63;;;8.10;99.90;;;;;;4411001;32;20194;-66
2021/09/29 00:30:14;;;;;;;13.17;7.47;;;8.10;99.90;;;;;;4412254;32;20123;-66
2021/09/29 00:32:42;;;;;;;12.97;7.80;;;8.10;99.90;;;;;;4412657;32;20124;-66
2021/09/29 00:35:12;;;;;;;11.73;7.30;;;8.00;99.90;;;;;;4410591;32;20203;-65
2021/09/29 00:37:39;;;;;;;10.60;7.00;;;8.10;99.90;;;;;;4412104;32;20147;-66
2021/09/29 00:40:08;;;;;;;13.10;7.40;;;8.10;99.90;;;;;;4410182;32;20123;-65
2021/09/29 00:42:35;;;;;;;14.17;7.70;;;8.00;99.90;;;;;;4411763;32;20459;-66
2021/09/29 00:45:03;;;;;;;13.43;7.53;;;8.00;99.90;;;;;;4411193;32;20209;-66
2021/09/29 00:47:32;;;;;;;12.87;7.00;;;8.00;99.90;;;;;;4410230;32;20178;-66
2021/09/29 00:49:59;;;;;;;14.00;7.67;;;8.00;99.90;;;;;;4410223;32;20128;-66
2021/09/29 00:52:26;;;;;;;16.07;8.07;;;8.00;99.90;;;;;;4410304;32;20124;-66
2021/09/29 00:54:55;;;;;;;12.97;7.70;;;8.00;99.90;;;;;;4410419;32;20378;-66
2021/09/29 00:57:22;;;;;;;12.30;7.83;;;8.00;99.90;;;;;;4411565;32;20171;-66
2021/09/29 00:59:49;;;;;;;13.13;8.10;;;8.00;99.90;;;;;;4410098;32;20232;-65
2021/09/29 01:02:17;;;;;;;13.30;8.00;;;7.90;99.90;;;;;;4411939;32;20127;-66
2021/09/29 01:04:46;;;;;;;13.33;7.80;;;7.90;99.90;;;;;;4410915;32;20162;-66
2021/09/29 01:07:24;;;;;;;14.17;7.60;;;7.90;99.90;;;;;;4410156;32;20399;-66
2021/09/29 01:10:10;;;;;;;14.37;8.17;;;7.90;99.90;;;;;;4409883;32;20189;-66
2021/09/29 01:12:45;;;;;;;12.40;7.60;;;7.90;99.90;;;;;;4411579;32;20138;-66
2021/09/29 01:15:27;;;;;;;12.37;7.60;;;7.80;99.90;;;;;;4410036;32;20132;-66
2021/09/29 01:18:00;;;;;;;14.27;7.87;;;7.80;99.90;;;;;;4409633;32;20134;-66
2021/09/29 01:20:36;;;;;;;14.23;7.13;;;7.80;99.90;;;;;;4411406;32;20400;-66
2021/09/29 01:23:11;;;;;;;13.60;8.17;;;7.80;99.90;;;;;;4409731;32;20185;-66
2021/09/29 01:25:58;;;;;;;13.23;7.83;;;7.80;99.90;;;;;;4411366;32;20153;-65
2021/09/29 01:28:29;;;;;;;15.60;7.60;;;7.80;99.90;;;;;;4409798;32;20147;-67
2021/09/29 01:30:58;;;;;;;13.77;8.13;;;7.80;99.90;;;;;;4411268;32;20427;-65
2021/09/29 01:33:27;;;;;;;13.53;7.63;;;7.80;99.90;;;;;;4409680;32;20209;-65
2021/09/29 01:35:54;;;;;;;11.83;7.47;;;7.80;99.90;;;;;;4409454;32;20127;-65
2021/09/29 01:38:22;;;;;;;12.90;7.37;;;7.80;99.90;;;;;;4409644;32;20527;-66
2021/09/29 01:40:49;;;;;;;14.43;8.60;;;7.70;99.90;;;;;;4411341;32;20124;-67
2021/09/29 01:43:16;;;;;;;12.00;7.50;;;7.80;99.90;;;;;;4410921;32;20147;-66
2021/09/29 01:45:47;;;;;;;13.00;7.90;;;7.80;99.90;;;;;;4409359;32;20143;-66
2021/09/29 01:48:18;;;;;;;12.43;7.60;;;7.80;99.90;;;;;;4411092;32;20136;-67
2021/09/29 01:50:47;;;;;;;11.50;7.57;;;7.80;99.90;;;;;;4410226;32;20581;-66
2021/09/29 01:53:16;;;;;;;14.73;8.37;;;7.80;99.90;;;;;;4411018;32;20153;-65
2021/09/29 01:55:44;;;;;;;12.33;8.00;;;7.80;99.90;;;;;;4409109;32;20195;-66
2021/09/29 01:58:11;;;;;;;13.83;8.17;;;7.70;99.90;;;;;;4409203;32;20151;-66
2021/09/29 02:00:40;;;;;;;16.13;8.43;;;7.70;99.90;;;;;;4410897;32;20382;-68
2021/09/29 02:03:07;;;;;;;12.77;7.60;;;7.70;99.90;;;;;;4411149;32;20173;-66
2021/09/29 02:05:36;;;;;;;18.40;8.00;;;7.70;99.90;;;;;;4409268;32;20227;-65
2021/09/29 02:08:06;;;;;;;14.80;8.17;;;7.70;99.90;;;;;;4408850;32;20135;-66
2021/09/29 02:10:33;;;;;;;15.47;8.20;;;7.70;99.90;;;;;;4409029;32;20172;-66
2021/09/29 02:13:01;;;;;;;13.60;7.90;;;7.70;99.90;;;;;;4410608;32;20147;-65
2021/09/29 02:15:27;;;;;;;14.50;8.33;;;7.70;99.90;;;;;;4410660;32;20407;-65
2021/09/29 02:17:54;;;;;;;15.43;8.63;;;7.70;99.90;;;;;;4410889;32;20165;-65
2021/09/29 02:20:22;;;;;;;13.57;8.20;;;7.70;99.90;;;;;;4410838;32;20203;-65
2021/09/29 02:22:49;;;;;;;15.23;8.03;;;7.70;99.90;;;;;;4409092;32;20139;-66
2021/09/29 02:25:16;;;;;;;14.40;8.27;;;7.70;99.90;;;;;;4408759;32;20173;-66
2021/09/29 02:27:43;;;;;;;14.80;8.53;;;7.70;99.90;;;;;;4408982;32;20159;-66
2021/09/29 02:30:11;;;;;;;14.43;8.73;;;7.60;99.90;;;;;;4410681;32;20130;-66
2021/09/29 02:32:39;;;;;;;13.57;8.73;;;7.70;99.90;;;;;;4409690;32;20131;-66
2021/09/29 02:35:08;;;;;;;14.27;8.03;;;7.70;99.90;;;;;;4408641;32;20496;-65
2021/09/29 02:37:35;;;;;;;14.67;8.20;;;7.60;99.90;;;;;;4409533;32;20231;-65
2021/09/29 02:40:04;;;;;;;14.20;8.43;;;7.60;99.90;;;;;;4409777;32;20131;-65
2021/09/29 02:42:31;;;;;;;14.57;8.03;;;7.60;99.90;;;;;;4410564;32;20147;-65
2021/09/29 02:44:58;;;;;;;14.60;8.30;;;7.60;99.90;;;;;;4410475;32;20131;-66
2021/09/29 02:47:24;;;;;;;13.77;8.03;;;7.60;99.90;;;;;;4408749;32;20446;-66
2021/09/29 02:49:51;;;;;;;13.47;7.87;;;7.60;99.90;;;;;;4408969;32;20474;-65
2021/09/29 02:52:18;;;;;;;14.17;7.90;;;7.60;99.90;;;;;;4409278;32;20128;-66
2021/09/29 02:54:45;;;;;;;15.73;8.07;;;7.50;99.90;;;;;;4408673;32;20430;-66
2021/09/29 02:57:11;;;;;;;14.03;7.97;;;7.50;99.90;;;;;;4408437;32;20566;-66
2021/09/29 02:59:38;;;;;;;15.83;8.30;;;7.50;99.90;;;;;;4408743;32;20184;-66
2021/09/29 03:02:05;;;;;;;14.10;7.73;;;7.50;99.90;;;;;;4408626;32;20165;-66
2021/09/29 03:04:32;;;;;;;13.93;8.50;;;7.50;99.90;;;;;;4408512;32;20131;-66
2021/09/29 03:06:59;;;;;;;14.03;8.20;;;7.50;99.90;;;;;;4410503;32;20132;-66
2021/09/29 03:09:25;;;;;;;17.13;8.23;;;7.50;99.90;;;;;;4410093;32;20165;-66
2021/09/29 03:11:52;;;;;;;16.43;8.50;;;7.50;99.90;;;;;;4410302;32;20174;-67
2021/09/29 03:14:19;;;;;;;13.93;8.13;;;7.50;99.90;;;;;;4408433;32;20474;-65
2021/09/29 03:17:01;;;;;;;14.90;8.50;;;7.40;99.90;;;;;;4409944;32;20428;-66
2021/09/29 03:19:27;;;;;;;15.63;8.33;;;7.40;99.90;;;;;;4409779;32;20397;-66
2021/09/29 03:21:54;;;;;;;15.63;8.73;;;7.40;99.90;;;;;;4409911;32;20189;-65
2021/09/29 03:24:21;;;;;;;16.23;9.13;;;7.40;99.90;;;;;;4409631;32;20123;-65
2021/09/29 03:26:48;;;;;;;15.03;8.40;;;7.40;99.90;;;;;;4408071;32;20220;-66
2021/09/29 03:29:16;;;;;;;17.40;8.70;;;7.40;99.90;;;;;;4408430;32;20185;-65
2021/09/29 03:31:43;;;;;;;13.53;8.40;;;7.40;99.90;;;;;;4409909;32;20365;-65
2021/09/29 03:34:10;;;;;;;15.20;8.57;;;7.40;99.90;;;;;;4408502;32;20131;-66
2021/09/29 03:36:37;;;;;;;14.10;8.33;;;7.40;99.90;;;;;;4410036;32;20140;-65
2021/09/29 03:39:04;;;;;;;15.67;8.10;;;7.40;99.90;;;;;;4410152;32;20177;-65
2021/09/29 03:41:31;;;;;;;18.17;8.30;;;7.40;99.90;;;;;;4409387;32;20166;-65
2021/09/29 03:43:58;;;;;;;13.90;8.03;;;7.40;99.90;;;;;;4410020;32;20173;-65
2021/09/29 03:46:25;;;;;;;11.77;7.73;;;7.40;99.90;;;;;;4408427;32;20165;-65
2021/09/29 03:48:52;;;;;;;15.20;8.67;;;7.30;99.90;;;;;;4411129;32;20153;-66
2021/09/29 03:51:19;;;;;;;14.97;8.53;;;7.40;99.90;;;;;;4410774;32;20434;-65
2021/09/29 03:53:45;;;;;;;13.47;8.30;;;7.40;99.90;;;;;;4410904;32;20135;-66
2021/09/29 03:56:12;;;;;;;14.90;8.83;;;7.30;99.90;;;;;;4412366;32;20200;-66
2021/09/29 03:58:39;;;;;;;15.30;8.43;;;7.30;99.90;;;;;;4410484;32;20594;-66
2021/09/29 04:01:06;;;;;;;15.00;8.10;;;7.20;99.90;;;;;;4412818;32;20173;-66
2021/09/29 04:03:33;;;;;;;15.47;8.70;;;7.20;99.90;;;;;;4412666;32;20192;-66
2021/09/29 04:06:00;;;;;;;16.97;9.00;;;7.20;99.90;;;;;;4410810;32;20140;-66
2021/09/29 04:08:26;;;;;;;16.77;8.70;;;7.10;99.90;;;;;;4412355;32;20151;-66
2021/09/29 04:10:55;;;;;;;18.17;9.20;;;7.10;99.90;;;;;;4410824;32;20183;-66
2021/09/29 04:13:23;;;;;;;18.50;9.00;;;7.10;99.90;;;;;;4412123;32;20215;-66
2021/09/29 04:15:49;;;;;;;18.17;9.27;;;7.10;99.90;;;;;;4410185;32;20466;-66
2021/09/29 04:18:16;;;;;;;15.23;8.60;;;7.10;99.90;;;;;;4411644;32;20132;-65
2021/09/29 04:20:43;;;;;;;14.40;8.63;;;7.10;99.90;;;;;;4410498;32;20126;-65
2021/09/29 04:23:10;;;;;;;15.63;9.03;;;7.10;99.90;;;;;;4412361;32;20127;-66
2021/09/29 04:25:39;;;;;;;16.07;9.53;;;7.10;99.90;;;;;;4410300;32;20317;-66
2021/09/29 04:28:06;;;;;;;16.13;9.10;;;7.10;99.90;;;;;;4410267;32;20151;-66
2021/09/29 04:30:37;;;;;;;15.50;8.83;;;7.10;99.90;;;;;;4412282;32;20131;-66
2021/09/29 04:33:13;;;;;;;17.63;9.20;;;7.10;99.90;;;;;;4412188;32;20138;-66
2021/09/29 04:36:11;;;;;;;15.20;8.90;;;7.00;99.90;;;;;;4410339;32;20186;-65
2021/09/29 04:39:13;;;;;;;15.20;9.03;;;7.10;99.90;;;;;;4349856;33;20187;-65
2021/09/29 04:42:06;;;;;;;19.07;9.13;;;7.00;99.90;;;;;;4348006;33;20163;-66
2021/09/29 04:45:02;;;;;;;18.97;9.30;;;7.00;99.90;;;;;;4349739;33;20175;-66
2021/09/29 04:47:50;;;;;;;15.57;8.53;;;7.00;99.90;;;;;;4348826;33;20250;-67
2021/09/29 04:50:25;;;;;;;15.13;9.00;;;7.00;99.90;;;;;;4348086;33;20247;-65
2021/09/29 04:53:14;;;;;;;19.90;9.60;;;7.00;99.90;;;;;;4349771;33;20171;-66
2021/09/29 04:56:10;;;;;;;17.53;9.50;;;7.10;99.90;;;;;;4349546;33;20168;-66
2021/09/29 04:58:58;;;;;;;16.47;9.13;;;7.00;99.90;;;;;;4349063;33;20238;-66
2021/09/29 05:01:34;;;;;;;21.20;9.93;;;7.10;99.90;;;;;;4349765;33;20199;-66
2021/09/29 05:04:25;;;;;;;16.43;9.13;;;7.00;99.90;;;;;;4348153;33;20464;-67
2021/09/29 05:07:08;;;;;;;14.53;8.57;;;7.10;99.90;;;;;;4347900;33;20215;-67
2021/09/29 05:10:01;;;;;;;16.63;9.10;;;7.10;99.90;;;;;;4349871;33;20153;-66
2021/09/29 05:13:01;;;;;;;15.83;8.70;;;7.10;99.90;;;;;;4349192;33;20211;-65
2021/09/29 05:15:51;;;;;;;17.13;9.40;;;7.20;99.90;;;;;;4380743;32;20231;-66
2021/09/29 05:18:33;;;;;;;16.07;8.77;;;7.20;99.90;;;;;;4411620;32;20142;-66
2021/09/29 05:21:03;;;;;;;15.47;8.83;;;7.20;99.90;;;;;;4409766;32;20185;-66
2021/09/29 05:23:34;;;;;;;18.80;9.17;;;7.30;99.90;;;;;;4410946;32;20154;-66
2021/09/29 05:26:09;;;;;;;18.43;9.20;;;7.30;99.90;;;;;;4409049;32;20205;-66
2021/09/29 05:28:47;;;;;;;16.27;8.93;;;7.30;99.90;;;;;;4409136;32;20441;-65
2021/09/29 05:31:20;;;;;;;16.53;8.93;;;7.40;99.90;;;;;;4411224;32;20162;-66
2021/09/29 05:33:47;;;;;;;19.20;9.60;;;7.50;99.90;;;;;;4409322;32;20135;-66
2021/09/29 05:36:14;;;;;;;14.90;9.17;;;7.50;99.90;;;;;;4410439;32;20119;-65
2021/09/29 05:38:41;;;;;;;19.53;9.50;;;7.50;99.90;;;;;;4409137;32;20188;-66
2021/09/29 05:41:20;;;;;;;17.37;9.80;;;7.60;99.90;;;;;;4409602;32;20139;-66
2021/09/29 05:43:47;;;;;;;16.77;9.33;;;7.60;99.90;;;;;;4409399;32;20184;-65
2021/09/29 05:46:16;;;;;;;17.77;9.30;;;7.70;99.90;;;;;;4410991;32;20223;-65
2021/09/29 05:48:46;;;;;;;18.90;9.10;;;7.80;99.90;;;;;;4411065;32;20143;-65
2021/09/29 05:51:19;;;;;;;19.33;9.47;;;7.80;99.90;;;;;;4411215;32;20389;-66
2021/09/29 05:53:53;;;;;;;21.10;8.80;;;7.90;99.90;;;;;;4410461;32;20123;-66
2021/09/29 05:56:25;;;;;;;19.77;8.93;;;8.00;99.90;;;;;;4409057;32;20189;-65
2021/09/29 05:58:59;;;;;;;13.33;7.93;;;8.20;99.90;;;;;;4409153;32;20249;-66
2021/09/29 06:01:27;;;;;;;14.90;8.27;;;8.30;99.90;;;;;;4410648;32;20191;-66
2021/09/29 06:04:01;;;;;;;14.17;8.30;;;8.30;99.90;;;;;;4410924;32;20123;-66
2021/09/29 06:06:37;;;;;;;18.47;8.33;;;8.40;99.90;;;;;;4410961;32;20381;-67
2021/09/29 06:09:04;;;;;;;17.37;8.70;;;8.40;99.90;;;;;;4408790;32;20184;-66
2021/09/29 06:11:36;;;;;;;16.33;8.33;;;8.50;99.90;;;;;;4410739;32;20203;-66
2021/09/29 06:14:07;;;;;;;16.70;9.20;;;8.60;99.90;;;;;;4409981;32;20127;-66
2021/09/29 06:16:47;;;;;;;19.47;8.60;;;8.70;99.90;;;;;;4408991;32;20147;-66
2021/09/29 06:19:29;;;;;;;20.23;7.90;;;8.80;99.90;;;;;;4410672;32;20135;-66
2021/09/29 06:22:05;;;;;;;17.07;8.13;;;8.90;99.90;;;;;;4410739;32;20153;-66
2021/09/29 06:24:35;;;;;;;15.30;8.33;;;9.00;99.90;;;;;;4410301;32;20189;-65
2021/09/29 06:27:20;;;;;;;19.23;7.43;;;9.20;99.90;;;;;;4408093;32;20216;-66
2021/09/29 06:29:52;;;;;;;17.57;7.70;;;9.20;99.90;;;;;;4410652;32;20406;-66
2021/09/29 06:32:30;;;;;;;15.33;7.80;;;9.30;99.90;;;;;;4408735;32;20130;-66
2021/09/29 06:35:00;;;;;;;19.27;7.70;;;9.30;99.90;;;;;;4408425;32;20515;-66
2021/09/29 06:37:31;;;;;;;17.60;8.00;;;9.30;99.90;;;;;;4409291;32;20142;-66
2021/09/29 06:40:27;;;;;;;14.40;7.60;;;9.30;99.90;;;;;;4410573;32;20143;-65
2021/09/29 06:42:58;;;;;;;16.27;8.00;;;9.40;99.90;;;;;;4409824;32;20561;-65
2021/09/29 06:45:32;;;;;;;18.57;7.70;;;9.50;99.90;;;;;;4410420;32;20209;-66
2021/09/29 06:48:10;;;;;;;18.63;7.20;;;9.50;99.90;;;;;;4408433;32;20166;-66
2021/09/29 06:50:47;;;;;;;16.53;7.67;;;9.50;99.90;;;;;;4410260;32;20419;-65
2021/09/29 06:53:20;;;;;;;15.27;7.47;;;9.60;99.90;;;;;;4410174;32;20203;-65
2021/09/29 06:55:53;;;;;;;15.50;7.93;;;9.70;99.90;;;;;;4408121;32;20213;-65
2021/09/29 06:58:28;;;;;;;14.33;6.80;;;9.80;99.90;;;;;;4408436;32;20544;-65
2021/09/29 07:01:09;;;;;;;18.00;8.10;;;9.90;99.90;;;;;;4410262;32;20196;-65
2021/09/29 07:04:05;;;;;;;20.27;7.77;;;10.00;99.90;;;;;;4408615;32;20124;-66
2021/09/29 07:06:42;;;;;;;18.30;7.27;;;10.10;99.90;;;;;;4406041;32;20206;-65
2021/09/29 07:09:26;;;;;;;18.57;7.43;;;10.10;99.90;;;;;;4408872;32;20432;-66
2021/09/29 07:12:03;;;;;;;18.73;7.30;;;10.20;99.90;;;;;;4409055;32;20139;-65
2021/09/29 07:15:02;;;;;;;14.00;6.90;;;10.30;99.90;;;;;;4410379;32;20541;-65
2021/09/29 07:17:57;;;;;;;13.73;6.63;;;10.30;99.90;;;;;;4409388;32;20193;-65
2021/09/29 07:20:40;;;;;;;18.47;6.73;;;10.40;99.90;;;;;;4410181;32;20136;-65
2021/09/29 07:23:16;;;;;;;17.23;6.90;;;10.50;99.90;;;;;;4413194;32;20123;-65
2021/09/29 07:25:56;;;;;;;15.43;6.97;;;10.60;99.90;;;;;;4411097;32;20147;-64
2021/09/29 07:28:22;;;;;;;17.83;6.70;;;10.60;99.90;;;;;;4411522;32;20410;-65
2021/09/29 07:31:06;;;;;;;18.20;6.90;;;10.70;99.90;;;;;;4409016;32;20264;-66
2021/09/29 07:33:49;;;;;;;18.10;6.30;;;10.90;99.90;;;;;;4411224;32;20198;-66
2021/09/29 07:36:23;;;;;;;14.77;6.13;;;11.00;99.90;;;;;;4412730;32;20462;-65
2021/09/29 07:39:02;;;;;;;18.83;6.50;;;11.10;99.90;;;;;;4412806;32;20151;-65
2021/09/29 07:41:34;;;;;;;13.30;6.80;;;11.20;99.90;;;;;;4421433;32;20290;-65
2021/09/29 07:44:02;;;;;;;13.47;6.43;;;11.30;99.90;;;;;;4427164;32;20404;-65
2021/09/29 07:46:29;;;;;;;16.47;6.80;;;11.40;99.90;;;;;;4427110;32;20207;-66
2021/09/29 07:49:01;;;;;;;16.97;7.33;;;11.50;99.90;;;;;;4427637;32;20178;-66
2021/09/29 07:51:30;;;;;;;17.73;6.50;;;11.60;99.90;;;;;;4426114;32;20200;-66
2021/09/29 07:54:13;;;;;;;14.17;6.63;;;11.70;99.90;;;;;;4426286;32;20135;-66
2021/09/29 07:56:43;;;;;;;16.23;6.40;;;11.80;99.90;;;;;;4427594;32;20159;-66
2021/09/29 07:59:18;;;;;;;16.33;6.77;;;11.90;99.90;;;;;;4427860;32;20162;-67
2021/09/29 08:01:53;;;;;;;14.50;5.90;;;12.00;99.90;;;;;;4427506;32;20195;-65
2021/09/29 08:04:35;;;;;;;13.90;6.40;;;12.20;99.90;;;;;;4427795;32;20161;-65
2021/09/29 08:07:35;;;;;;;14.63;6.30;;;12.80;99.90;;;;;;4425612;32;20147;-66
2021/09/29 08:10:25;;;;;;;11.93;5.77;;;13.30;99.90;;;;;;4427578;32;20131;-65
2021/09/29 08:13:04;;;;;;;12.73;5.60;;;14.00;99.90;;;;;;4427413;32;20166;-66
2021/09/29 08:15:37;;;;;;;14.10;5.83;;;14.60;99.90;;;;;;4427589;32;20138;-66
2021/09/29 08:18:24;;;;;;;14.33;6.10;;;15.00;99.90;;;;;;4427664;32;20198;-66
2021/09/29 08:20:54;;;;;;;14.27;5.77;;;15.50;99.90;;;;;;4425704;32;20445;-66
2021/09/29 08:23:50;;;;;;;14.13;6.00;;;15.90;99.90;;;;;;4424563;32;20166;-65
2021/09/29 08:43:44;;;;;;;12.23;5.50;;;17.50;99.90;;;;;;4426793;32;20234;-67
2021/09/29 08:46:15;;;;;;;11.93;5.57;;;17.90;99.90;;;;;;4423551;32;20154;-71
2021/09/29 09:16:45;;;;;;;14.93;5.60;;;20.00;99.90;;;;;;4347479;33;20183;-67
2021/09/29 09:19:36;;;;;;;12.17;5.60;;;20.10;99.90;;;;;;4349245;33;20167;-66
2021/09/29 09:22:12;;;;;;;11.87;5.23;;;19.90;99.90;;;;;;4349220;33;20144;-66
2021/09/29 09:24:52;;;;;;;11.83;5.27;;;19.90;99.90;;;;;;4347429;33;20156;-67
2021/09/29 09:27:37;;;;;;;11.53;5.77;;;20.20;99.90;;;;;;4347378;33;20184;-65
2021/09/29 09:30:31;;;;;;;11.53;5.37;;;20.20;99.90;;;;;;4348983;33;20149;-65
2021/09/29 09:33:31;;;;;;;12.93;5.20;;;20.20;99.90;;;;;;4358227;32;20400;-66
2021/09/29 09:36:32;;;;;;;14.07;5.30;;;20.50;99.70;;;;;;4426601;32;20166;-66
2021/09/29 09:39:40;;;;;;;13.07;5.17;;;21.10;99.00;;;;;;4426278;32;20158;-66
2021/09/29 09:42:16;;;;;;;11.17;5.30;;;21.30;97.90;;;;;;4426066;32;20177;-67
2021/09/29 09:44:56;;;;;;;11.23;5.00;;;21.70;97.80;;;;;;4425479;32;20472;-67
2021/09/29 09:47:26;;;;;;;11.43;5.47;;;21.30;96.00;;;;;;4424408;32;20204;-68
2021/09/29 09:50:11;;;;;;;12.30;5.23;;;21.00;96.60;;;;;;4426570;32;20158;-67
2021/09/29 09:52:47;;;;;;;11.80;5.27;;;21.00;95.80;;;;;;4424390;32;20210;-67
2021/09/29 09:55:28;;;;;;;12.20;5.07;;;21.50;95.30;;;;;;4423927;32;20231;-66
2021/09/29 09:58:03;;;;;;;9.67;4.80;;;21.80;94.40;;;;;;4424511;32;20204;-66
2021/09/29 10:00:36;;;;;;;12.47;5.10;;;22.30;93.60;;;;;;4426344;32;20184;-68
2021/09/29 10:03:28;;;;;;;10.47;4.93;;;22.80;91.70;;;;;;4425882;32;20491;-67
2021/09/29 10:06:05;;;;;;;12.83;5.60;;;23.00;90.50;;;;;;4426194;32;20165;-67
2021/09/29 10:08:34;;;;;;;10.87;5.10;;;23.00;88.90;;;;;;4424273;32;20139;-68
2021/09/29 10:28:40;;;;;;;10.07;4.97;;;22.30;86.00;;;;;;4423691;32;20196;-68
2021/09/29 10:31:30;;;;;;;10.93;4.70;;;22.10;85.40;;;;;;4423896;32;20223;-67
2021/09/29 10:43:27;;;;;;;7.62;4.95;;;23.10;83.00;;;;;;4348000;33;20225;-67
2021/09/29 10:46:14;;;;;;;9.65;4.90;;;23.30;81.00;;;;;;4348457;33;20145;-68
2021/09/29 10:49:49;;;;;;;10.37;5.10;;;23.80;79.20;;;;;;4346992;33;20157;-68
2021/09/29 11:04:21;;;;;;;9.73;4.70;;;22.80;75.10;;;;;;4350613;33;20214;-68
2021/09/29 11:10:32;;;;;;;13.03;4.80;;;23.40;75.40;;;;;;4291999;33;20165;-68
2021/09/29 12:12:30;;;;;;;8.50;5.30;;;27.40;57.40;;;;;;4393991;32;20196;-68
2021/09/29 12:15:03;;;;;;;8.68;5.05;;;27.70;56.30;;;;;;4426284;32;20184;-68
2021/09/29 12:17:34;;;;;;;7.53;5.10;;;26.60;56.60;;;;;;4425807;32;20181;-67
2021/09/29 12:20:26;;;;;;;8.23;5.00;;;26.30;58.20;;;;;;4425465;32;20139;-68
2021/09/29 12:23:06;;;;;;;8.93;5.25;;;25.80;58.90;;;;;;4425469;32;20184;-69
2021/09/29 12:25:47;;;;;;;9.60;5.32;;;25.30;60.10;;;;;;4427591;32;20184;-67
2021/09/29 12:36:31;;;;;;;11.63;5.20;;;21.70;70.70;;;;;;4427196;32;20428;-67
2021/09/29 12:39:02;;;;;;;10.60;5.20;;;20.80;73.70;;;;;;4425584;32;20146;-67
2021/09/29 12:41:34;;;;;;;10.30;5.60;;;20.70;75.60;;;;;;4427387;32;20196;-68
2021/09/29 12:44:13;;;;;;;9.47;5.13;;;20.30;76.70;;;;;;4425307;32;20162;-66
2021/09/29 12:46:53;;;;;;;10.47;4.90;;;20.00;78.20;;;;;;4427318;32;20131;-68
2021/09/29 12:49:24;;;;;;;8.33;4.70;;;20.70;77.40;;;;;;4425321;32;20165;-66
2021/09/29 12:52:10;;;;;;;11.90;5.20;;;21.20;75.30;;;;;;4427132;32;20377;-67
2021/09/29 12:54:50;;;;;;;10.27;5.10;;;20.90;75.10;;;;;;4426484;32;20149;-69
2021/09/29 12:57:20;;;;;;;9.80;5.03;;;20.40;77.50;;;;;;4426781;32;20171;-67
2021/09/29 12:59:47;;;;;;;10.57;5.10;;;20.10;78.40;;;;;;4426374;32;20227;-68
2021/09/29 13:02:21;;;;;;;11.83;5.17;;;19.60;80.60;;;;;;4426155;32;20208;-67
2021/09/29 13:04:50;;;;;;;11.97;4.90;;;19.40;81.30;;;;;;4427143;32;20131;-67
2021/09/29 13:07:22;;;;;;;10.73;5.27;;;19.20;82.70;;;;;;4427055;32;20143;-67
2021/09/29 13:09:52;;;;;;;7.53;4.80;;;19.20;83.30;;;;;;4427023;32;20131;-69
2021/09/29 13:12:33;;;;;;;11.23;4.97;;;19.20;83.60;;;;;;4427165;32;20135;-67
2021/09/29 13:15:04;;;;;;;11.03;5.30;;;18.80;84.20;;;;;;4426899;32;20130;-67
2021/09/29 13:17:46;;;;;;;10.47;5.47;;;18.70;85.10;;;;;;4426623;32;20481;-67
2021/09/29 13:20:26;;;;;;;11.57;5.07;;;18.70;86.30;;;;;;4426408;32;20151;-67
2021/09/29 13:23:05;;;;;;;8.97;4.70;;;18.80;86.30;;;;;;4424897;32;20131;-67
2021/09/29 13:37:49;;;;;;;10.73;5.17;;;18.30;87.80;;;;;;4332597;33;20471;-67
2021/09/29 13:40:27;;;;;;;14.07;5.23;;;18.20;88.90;;;;;;4334402;33;20182;-67
2021/09/29 13:42:54;;;;;;;14.17;5.30;;;18.20;89.20;;;;;;4332960;33;20145;-66
2021/09/29 13:45:30;;;;;;;11.10;5.00;;;18.30;88.60;;;;;;4332673;33;20514;-66
2021/09/29 13:48:04;;;;;;;11.60;4.90;;;18.20;88.10;;;;;;4332904;33;20179;-68
2021/09/29 13:50:32;;;;;;;9.77;4.83;;;18.00;88.80;;;;;;4333388;33;20193;-66
2021/09/29 13:53:07;;;;;;;10.03;5.20;;;17.80;89.40;;;;;;4333720;33;20144;-65
2021/09/29 13:55:41;;;;;;;8.20;4.77;;;17.70;90.20;;;;;;4334040;33;20153;-66
2021/09/29 14:31:42;;;;;;;10.57;4.73;;;17.00;92.40;;;;;;4406164;32;20492;-68
2021/09/29 14:34:18;;;;;;;8.80;4.77;;;17.00;92.50;;;;;;4408704;32;20140;-67
2021/09/29 14:36:55;;;;;;;9.07;4.90;;;17.00;92.80;;;;;;4408349;32;20182;-67
2021/09/29 14:39:28;;;;;;;7.40;4.60;;;17.10;93.10;;;;;;4406405;32;20469;-68
2021/09/29 14:41:55;;;;;;;12.40;5.03;;;17.00;93.20;;;;;;4408719;32;20438;-67
2021/09/29 14:44:29;;;;;;;11.13;5.80;;;16.90;93.30;;;;;;4408511;32;20197;-67
2021/09/29 14:47:11;;;;;;;10.70;5.37;;;16.80;93.70;;;;;;4408283;32;20135;-67
2021/09/29 14:49:47;;;;;;;10.67;4.73;;;16.80;93.70;;;;;;4406340;32;20265;-67
2021/09/29 14:52:20;;;;;;;12.37;5.33;;;16.80;93.70;;;;;;4408158;32;20197;-67
2021/09/29 14:54:54;;;;;;;9.57;5.33;;;16.70;93.90;;;;;;4407631;32;20209;-68
2021/09/29 14:57:21;;;;;;;9.70;5.10;;;16.70;93.90;;;;;;4406510;32;20158;-67
2021/09/29 14:59:52;;;;;;;9.37;5.53;;;16.70;94.20;;;;;;4407790;32;20198;-67
2021/09/29 15:02:24;;;;;;;7.67;5.10;;;16.80;94.30;;;;;;4406827;32;20130;-67
2021/09/29 15:04:51;;;;;;;10.17;5.53;;;16.80;94.20;;;;;;4407274;32;20193;-64
2021/09/29 15:07:19;;;;;;;11.70;5.53;;;16.80;94.10;;;;;;4395176;32;20446;-64
2021/09/29 15:09:54;;;;;;;8.87;5.80;;;16.70;94.10;;;;;;4393700;32;20148;-65
2021/09/29 15:12:25;;;;;;;8.73;5.53;;;16.60;94.40;;;;;;4393403;32;20229;-64
2021/09/29 15:18:03;;;;;;;9.23;5.67;;;16.50;95.00;;;;;;4384086;32;20159;-65
2021/09/29 15:28:54;;;;;;;11.63;6.13;;;16.30;95.70;;;;;;4416380;32;20186;-64
2021/09/29 15:48:56;;;;;;;11.00;6.13;;;15.90;97.60;;;;;;4399876;32;20443;-63
2021/09/29 15:51:37;;;;;;;9.60;5.63;;;15.90;98.00;;;;;;4427913;32;20123;-64
2021/09/29 15:59:49;;;;;;;11.20;5.67;;;15.70;98.60;;;;;;4427749;32;20135;-65
2021/09/29 16:02:37;;;;;;;12.10;5.67;;;15.70;99.60;;;;;;4427915;32;20482;-64
2021/09/29 16:19:41;;;;;;;13.73;6.23;;;15.40;99.90;;;;;;4427877;32;20204;-65
2021/09/29 16:31:38;;;;;;;12.97;6.40;;;15.10;99.90;;;;;;4425408;32;20150;-64
2021/09/29 16:34:45;;;;;;;11.40;6.00;;;15.10;99.90;;;;;;4420789;32;20208;-64
2021/09/29 16:36:42;;;;;;;16.30;6.40;;;15.00;99.90;;;;;;4415211;32;20154;-64
2021/09/29 16:39:13;;;;;;;13.73;6.43;;;15.00;99.90;;;;;;4413444;32;20147;-64
2021/09/29 16:41:40;;;;;;;11.93;6.27;;;14.90;99.90;;;;;;4411926;32;20514;-67
2021/09/29 16:44:14;;;;;;;14.40;6.27;;;14.80;99.90;;;;;;4416480;32;20523;-66
2021/09/29 16:46:46;;;;;;;18.23;6.60;;;14.80;99.90;;;;;;4416720;32;20169;-67
2021/09/29 16:49:28;;;;;;;17.53;6.70;;;14.60;99.90;;;;;;4420992;32;20214;-66
2021/09/29 16:54:52;;;;;;;14.03;6.70;;;14.50;99.90;;;;;;4409723;32;20212;-66
2021/09/29 17:00:42;;;;;;;12.47;6.83;;;14.40;99.90;;;;;;4416084;32;20166;-67
2021/09/29 17:03:13;;;;;;;13.77;7.27;;;14.40;99.90;;;;;;4425963;32;20225;-67
2021/09/29 17:05:52;;;;;;;11.60;6.60;;;14.30;99.90;;;;;;4426878;32;20423;-66
2021/09/29 17:08:24;;;;;;;13.10;6.97;;;14.30;99.90;;;;;;4426709;32;20143;-67
2021/09/29 17:10:52;;;;;;;13.03;6.97;;;14.20;99.90;;;;;;4426931;32;20127;-66
2021/09/29 17:13:24;;;;;;;14.33;7.33;;;14.20;99.90;;;;;;4425061;32;20233;-67
2021/09/29 17:15:56;;;;;;;15.50;7.30;;;14.10;99.90;;;;;;4425980;32;20183;-67
2021/09/29 17:18:35;;;;;;;16.50;6.90;;;14.00;99.90;;;;;;4426463;32;20169;-67
2021/09/29 17:21:06;;;;;;;12.70;7.00;;;14.00;99.90;;;;;;4421252;32;20173;-65
2021/09/29 17:23:39;;;;;;;14.77;7.20;;;13.90;99.90;;;;;;4415383;32;20180;-66
2021/09/29 17:26:07;;;;;;;13.27;7.20;;;13.90;99.90;;;;;;4410840;32;20208;-64
2021/09/29 17:28:46;;;;;;;14.53;7.47;;;13.80;99.90;;;;;;4417371;32;20170;-64
2021/09/29 17:31:21;;;;;;;16.43;7.63;;;13.80;99.90;;;;;;4416410;32;20135;-63
2021/09/29 17:53:45;;;;;;;15.77;7.97;;;13.50;99.90;;;;;;4426222;32;20175;-64
2021/09/29 17:56:31;;;;;;;19.07;7.90;;;13.50;99.90;;;;;;4424508;32;20199;-63
2021/09/29 17:59:02;;;;;;;18.03;7.97;;;13.40;99.90;;;;;;4426143;32;20180;-65
2021/09/29 18:01:34;;;;;;;15.90;7.33;;;13.40;99.90;;;;;;4425182;32;20181;-64
2021/09/29 18:04:11;;;;;;;15.33;7.53;;;13.40;99.90;;;;;;4426256;32;20137;-63